sensor_id;sensor_type;location;lat;lon;timestamp;P1;durP1;ratioP1;P2;durP2;ratioP2
54143;SDS011;40050;47.324;18.792;2022-10-19T00:00:47;15.69;;;9.59;;
54143;SDS011;40050;47.324;18.792;2022-10-19T00:02:48;13.07;;;9.59;;
54143;SDS011;40050;47.324;18.792;2022-10-19T00:04:49;16.55;;;9.79;;
54143;SDS011;40050;47.324;18.792;2022-10-19T00:06:54;15.53;;;9.59;;
54143;SDS011;40050;47.324;18.792;2022-10-19T00:08:59;16.57;;;9.50;;
54143;SDS011;40050;47.324;18.792;2022-10-19T00:10:56;16.93;;;9.49;;
54143;SDS011;40050;47.324;18.792;2022-10-19T00:12:57;15.14;;;8.90;;
54143;SDS011;40050;47.324;18.792;2022-10-19T00:14:58;15.14;;;9.89;;
54143;SDS011;40050;47.324;18.792;2022-10-19T00:17:00;20.30;;;9.99;;
54143;SDS011;40050;47.324;18.792;2022-10-19T00:19:02;17.20;;;9.89;;
54143;SDS011;40050;47.324;18.792;2022-10-19T00:21:03;15.78;;;9.89;;
54143;SDS011;40050;47.324;18.792;2022-10-19T00:23:03;17.84;;;10.08;;
54143;SDS011;40050;47.324;18.792;2022-10-19T00:25:05;17.45;;;9.59;;
54143;SDS011;40050;47.324;18.792;2022-10-19T00:27:05;16.13;;;9.49;;
54143;SDS011;40050;47.324;18.792;2022-10-19T00:29:06;16.60;;;9.78;;
54143;SDS011;40050;47.324;18.792;2022-10-19T00:31:09;15.67;;;9.59;;
54143;SDS011;40050;47.324;18.792;2022-10-19T00:33:08;18.59;;;9.39;;
54143;SDS011;40050;47.324;18.792;2022-10-19T00:35:09;17.57;;;9.89;;
54143;SDS011;40050;47.324;18.792;2022-10-19T00:37:10;17.87;;;9.89;;
54143;SDS011;40050;47.324;18.792;2022-10-19T00:39:12;15.89;;;9.49;;
54143;SDS011;40050;47.324;18.792;2022-10-19T00:41:13;17.97;;;9.89;;
54143;SDS011;40050;47.324;18.792;2022-10-19T00:43:18;16.64;;;9.69;;
54143;SDS011;40050;47.324;18.792;2022-10-19T00:45:29;15.50;;;9.39;;
54143;SDS011;40050;47.324;18.792;2022-10-19T00:47:33;15.85;;;9.59;;
54143;SDS011;40050;47.324;18.792;2022-10-19T00:49:49;16.24;;;9.88;;
54143;SDS011;40050;47.324;18.792;2022-10-19T00:51:54;16.98;;;9.59;;
54143;SDS011;40050;47.324;18.792;2022-10-19T00:53:51;17.25;;;9.58;;
54143;SDS011;40050;47.324;18.792;2022-10-19T00:55:52;15.83;;;9.68;;
54143;SDS011;40050;47.324;18.792;2022-10-19T00:57:54;16.68;;;10.27;;
54143;SDS011;40050;47.324;18.792;2022-10-19T00:59:56;20.26;;;10.57;;
54143;SDS011;40050;47.324;18.792;2022-10-19T01:01:59;21.03;;;10.97;;
54143;SDS011;40050;47.324;18.792;2022-10-19T01:04:00;18.70;;;10.78;;
54143;SDS011;40050;47.324;18.792;2022-10-19T01:06:01;22.48;;;11.08;;
54143;SDS011;40050;47.324;18.792;2022-10-19T01:08:02;18.51;;;10.97;;
54143;SDS011;40050;47.324;18.792;2022-10-19T01:10:03;17.75;;;10.77;;
54143;SDS011;40050;47.324;18.792;2022-10-19T01:12:39;19.33;;;10.18;;
54143;SDS011;40050;47.324;18.792;2022-10-19T01:14:37;19.80;;;10.77;;
54143;SDS011;40050;47.324;18.792;2022-10-19T01:18:57;18.46;;;11.06;;
54143;SDS011;40050;47.324;18.792;2022-10-19T01:21:07;17.62;;;10.67;;
54143;SDS011;40050;47.324;18.792;2022-10-19T01:30:08;18.91;;;10.47;;
54143;SDS011;40050;47.324;18.792;2022-10-19T01:32:18;21.99;;;11.55;;
54143;SDS011;40050;47.324;18.792;2022-10-19T01:34:27;20.10;;;10.96;;
54143;SDS011;40050;47.324;18.792;2022-10-19T01:37:04;17.56;;;10.36;;
54143;SDS011;40050;47.324;18.792;2022-10-19T01:38:54;19.23;;;10.95;;
54143;SDS011;40050;47.324;18.792;2022-10-19T01:41:06;16.23;;;10.95;;
54143;SDS011;40050;47.324;18.792;2022-10-19T01:43:31;18.37;;;11.54;;
54143;SDS011;40050;47.324;18.792;2022-10-19T01:47:21;18.91;;;11.14;;
54143;SDS011;40050;47.324;18.792;2022-10-19T01:51:54;19.36;;;11.34;;
54143;SDS011;40050;47.324;18.792;2022-10-19T01:53:48;19.01;;;11.34;;
54143;SDS011;40050;47.324;18.792;2022-10-19T01:55:49;17.82;;;10.75;;
54143;SDS011;40050;47.324;18.792;2022-10-19T01:57:54;19.10;;;11.24;;
54143;SDS011;40050;47.324;18.792;2022-10-19T01:59:53;18.53;;;11.04;;
54143;SDS011;40050;47.324;18.792;2022-10-19T02:01:56;18.15;;;10.84;;
54143;SDS011;40050;47.324;18.792;2022-10-19T02:03:58;18.53;;;10.85;;
54143;SDS011;40050;47.324;18.792;2022-10-19T02:06:02;19.84;;;10.95;;
54143;SDS011;40050;47.324;18.792;2022-10-19T02:08:04;19.20;;;11.44;;
54143;SDS011;40050;47.324;18.792;2022-10-19T02:10:04;16.59;;;10.06;;
54143;SDS011;40050;47.324;18.792;2022-10-19T02:12:07;16.78;;;10.26;;
54143;SDS011;40050;47.324;18.792;2022-10-19T02:14:10;17.27;;;9.87;;
54143;SDS011;40050;47.324;18.792;2022-10-19T02:16:13;15.71;;;9.48;;
54143;SDS011;40050;47.324;18.792;2022-10-19T02:18:18;15.70;;;9.58;;
54143;SDS011;40050;47.324;18.792;2022-10-19T02:20:18;16.44;;;10.07;;
54143;SDS011;40050;47.324;18.792;2022-10-19T02:22:20;24.84;;;10.46;;
54143;SDS011;40050;47.324;18.792;2022-10-19T02:24:21;17.00;;;10.17;;
54143;SDS011;40050;47.324;18.792;2022-10-19T02:26:22;19.89;;;11.05;;
54143;SDS011;40050;47.324;18.792;2022-10-19T02:28:23;20.17;;;11.05;;
54143;SDS011;40050;47.324;18.792;2022-10-19T02:30:24;17.82;;;11.44;;
54143;SDS011;40050;47.324;18.792;2022-10-19T02:32:25;19.75;;;12.13;;
54143;SDS011;40050;47.324;18.792;2022-10-19T02:34:26;22.13;;;11.43;;
54143;SDS011;40050;47.324;18.792;2022-10-19T02:36:28;18.61;;;11.53;;
54143;SDS011;40050;47.324;18.792;2022-10-19T02:38:31;20.44;;;11.13;;
54143;SDS011;40050;47.324;18.792;2022-10-19T02:40:33;18.20;;;11.33;;
54143;SDS011;40050;47.324;18.792;2022-10-19T02:42:51;20.52;;;11.33;;
54143;SDS011;40050;47.324;18.792;2022-10-19T02:45:01;17.24;;;11.62;;
54143;SDS011;40050;47.324;18.792;2022-10-19T02:47:10;21.48;;;11.22;;
54143;SDS011;40050;47.324;18.792;2022-10-19T02:49:11;20.74;;;12.21;;
54143;SDS011;40050;47.324;18.792;2022-10-19T02:51:31;18.72;;;12.01;;
54143;SDS011;40050;47.324;18.792;2022-10-19T02:53:16;19.29;;;11.52;;
54143;SDS011;40050;47.324;18.792;2022-10-19T02:55:17;20.04;;;12.51;;
54143;SDS011;40050;47.324;18.792;2022-10-19T02:57:18;21.50;;;12.21;;
54143;SDS011;40050;47.324;18.792;2022-10-19T02:59:18;19.46;;;12.11;;
54143;SDS011;40050;47.324;18.792;2022-10-19T03:01:19;18.53;;;11.62;;
54143;SDS011;40050;47.324;18.792;2022-10-19T03:03:20;21.66;;;13.09;;
54143;SDS011;40050;47.324;18.792;2022-10-19T03:05:21;19.96;;;12.69;;
54143;SDS011;40050;47.324;18.792;2022-10-19T03:07:22;19.44;;;13.07;;
54143;SDS011;40050;47.324;18.792;2022-10-19T03:09:23;19.56;;;13.25;;
54143;SDS011;40050;47.324;18.792;2022-10-19T03:11:24;23.23;;;13.24;;
54143;SDS011;40050;47.324;18.792;2022-10-19T03:13:27;19.46;;;13.33;;
54143;SDS011;40050;47.324;18.792;2022-10-19T03:15:28;21.90;;;13.22;;
54143;SDS011;40050;47.324;18.792;2022-10-19T03:17:28;20.44;;;12.74;;
54143;SDS011;40050;47.324;18.792;2022-10-19T03:19:29;20.44;;;13.91;;
54143;SDS011;40050;47.324;18.792;2022-10-19T03:21:38;20.15;;;12.83;;
54143;SDS011;40050;47.324;18.792;2022-10-19T03:23:39;19.13;;;13.22;;
54143;SDS011;40050;47.324;18.792;2022-10-19T03:25:40;20.38;;;12.63;;
54143;SDS011;40050;47.324;18.792;2022-10-19T03:27:40;20.29;;;13.02;;
54143;SDS011;40050;47.324;18.792;2022-10-19T03:29:41;18.92;;;12.82;;
54143;SDS011;40050;47.324;18.792;2022-10-19T03:31:42;22.07;;;14.38;;
54143;SDS011;40050;47.324;18.792;2022-10-19T03:33:43;21.22;;;13.98;;
54143;SDS011;40050;47.324;18.792;2022-10-19T03:35:44;23.91;;;15.05;;
54143;SDS011;40050;47.324;18.792;2022-10-19T03:37:45;22.35;;;14.36;;
54143;SDS011;40050;47.324;18.792;2022-10-19T03:39:46;21.16;;;15.14;;
54143;SDS011;40050;47.324;18.792;2022-10-19T03:41:47;22.95;;;15.23;;
54143;SDS011;40050;47.324;18.792;2022-10-19T03:43:48;23.52;;;14.85;;
54143;SDS011;40050;47.324;18.792;2022-10-19T03:45:49;21.92;;;14.85;;
54143;SDS011;40050;47.324;18.792;2022-10-19T03:47:50;21.13;;;14.66;;
54143;SDS011;40050;47.324;18.792;2022-10-19T03:49:51;25.21;;;15.15;;
54143;SDS011;40050;47.324;18.792;2022-10-19T03:51:56;19.97;;;14.28;;
54143;SDS011;40050;47.324;18.792;2022-10-19T03:53:58;23.02;;;14.88;;
54143;SDS011;40050;47.324;18.792;2022-10-19T03:56:02;23.07;;;15.85;;
54143;SDS011;40050;47.324;18.792;2022-10-19T03:57:59;22.99;;;15.46;;
54143;SDS011;40050;47.324;18.792;2022-10-19T04:00:00;25.52;;;15.94;;
54143;SDS011;40050;47.324;18.792;2022-10-19T04:02:02;24.79;;;16.14;;
54143;SDS011;40050;47.324;18.792;2022-10-19T04:04:04;25.82;;;16.44;;
54143;SDS011;40050;47.324;18.792;2022-10-19T04:06:05;26.46;;;16.63;;
54143;SDS011;40050;47.324;18.792;2022-10-19T04:08:05;25.00;;;16.14;;
54143;SDS011;40050;47.324;18.792;2022-10-19T04:10:06;27.37;;;17.12;;
54143;SDS011;40050;47.324;18.792;2022-10-19T04:12:07;26.36;;;16.24;;
54143;SDS011;40050;47.324;18.792;2022-10-19T04:14:09;22.01;;;16.24;;
54143;SDS011;40050;47.324;18.792;2022-10-19T04:16:11;27.89;;;16.73;;
54143;SDS011;40050;47.324;18.792;2022-10-19T04:18:10;27.16;;;16.82;;
54143;SDS011;40050;47.324;18.792;2022-10-19T04:20:11;25.73;;;15.95;;
54143;SDS011;40050;47.324;18.792;2022-10-19T04:22:12;28.31;;;15.76;;
54143;SDS011;40050;47.324;18.792;2022-10-19T04:24:14;23.77;;;16.25;;
54143;SDS011;40050;47.324;18.792;2022-10-19T04:26:14;26.62;;;16.06;;
54143;SDS011;40050;47.324;18.792;2022-10-19T04:28:15;26.17;;;16.36;;
54143;SDS011;40050;47.324;18.792;2022-10-19T04:30:16;25.53;;;16.36;;
54143;SDS011;40050;47.324;18.792;2022-10-19T04:32:18;27.72;;;16.65;;
54143;SDS011;40050;47.324;18.792;2022-10-19T04:34:19;26.23;;;16.64;;
54143;SDS011;40050;47.324;18.792;2022-10-19T04:36:20;25.07;;;16.94;;
54143;SDS011;40050;47.324;18.792;2022-10-19T04:38:21;24.26;;;16.16;;
54143;SDS011;40050;47.324;18.792;2022-10-19T04:40:22;24.83;;;16.17;;
54143;SDS011;40050;47.324;18.792;2022-10-19T04:42:23;24.84;;;16.46;;
54143;SDS011;40050;47.324;18.792;2022-10-19T04:44:25;24.32;;;15.49;;
54143;SDS011;40050;47.324;18.792;2022-10-19T04:46:26;26.85;;;16.19;;
54143;SDS011;40050;47.324;18.792;2022-10-19T04:48:27;21.92;;;14.92;;
54143;SDS011;40050;47.324;18.792;2022-10-19T04:50:28;24.66;;;15.50;;
54143;SDS011;40050;47.324;18.792;2022-10-19T04:52:29;25.85;;;15.50;;
54143;SDS011;40050;47.324;18.792;2022-10-19T04:54:30;25.26;;;16.20;;
54143;SDS011;40050;47.324;18.792;2022-10-19T04:56:34;26.31;;;16.70;;
54143;SDS011;40050;47.324;18.792;2022-10-19T04:58:35;27.42;;;16.11;;
54143;SDS011;40050;47.324;18.792;2022-10-19T05:00:37;28.12;;;16.50;;
54143;SDS011;40050;47.324;18.792;2022-10-19T05:02:41;28.29;;;16.87;;
54143;SDS011;40050;47.324;18.792;2022-10-19T05:04:40;27.54;;;16.96;;
54143;SDS011;40050;47.324;18.792;2022-10-19T05:06:42;30.14;;;16.76;;
54143;SDS011;40050;47.324;18.792;2022-10-19T05:08:43;29.75;;;17.24;;
54143;SDS011;40050;47.324;18.792;2022-10-19T05:10:44;31.74;;;16.85;;
54143;SDS011;40050;47.324;18.792;2022-10-19T05:12:44;29.63;;;17.14;;
54143;SDS011;40050;47.324;18.792;2022-10-19T05:14:45;31.45;;;17.33;;
54143;SDS011;40050;47.324;18.792;2022-10-19T05:16:48;28.15;;;16.55;;
54143;SDS011;40050;47.324;18.792;2022-10-19T05:18:49;26.53;;;16.06;;
54143;SDS011;40050;47.324;18.792;2022-10-19T05:20:49;29.66;;;16.56;;
54143;SDS011;40050;47.324;18.792;2022-10-19T05:22:50;24.85;;;15.97;;
54143;SDS011;40050;47.324;18.792;2022-10-19T05:24:51;23.59;;;15.59;;
54143;SDS011;40050;47.324;18.792;2022-10-19T05:26:54;29.27;;;15.98;;
54143;SDS011;40050;47.324;18.792;2022-10-19T05:28:56;24.13;;;15.59;;
54143;SDS011;40050;47.324;18.792;2022-10-19T05:31:03;25.43;;;16.47;;
54143;SDS011;40050;47.324;18.792;2022-10-19T05:32:57;21.12;;;14.41;;
54143;SDS011;40050;47.324;18.792;2022-10-19T05:34:58;23.77;;;15.59;;
54143;SDS011;40050;47.324;18.792;2022-10-19T05:37:00;26.58;;;15.58;;
54143;SDS011;40050;47.324;18.792;2022-10-19T05:39:04;26.02;;;16.36;;
54143;SDS011;40050;47.324;18.792;2022-10-19T05:41:02;23.17;;;15.09;;
54143;SDS011;40050;47.324;18.792;2022-10-19T05:43:03;21.96;;;15.18;;
54143;SDS011;40050;47.324;18.792;2022-10-19T05:45:04;24.03;;;15.76;;
54143;SDS011;40050;47.324;18.792;2022-10-19T05:47:04;23.11;;;15.27;;
54143;SDS011;40050;47.324;18.792;2022-10-19T05:49:06;23.64;;;15.46;;
54143;SDS011;40050;47.324;18.792;2022-10-19T05:51:07;23.25;;;15.75;;
54143;SDS011;40050;47.324;18.792;2022-10-19T05:53:07;23.34;;;15.55;;
54143;SDS011;40050;47.324;18.792;2022-10-19T05:55:08;23.33;;;15.84;;
54143;SDS011;40050;47.324;18.792;2022-10-19T05:57:10;25.32;;;15.84;;
54143;SDS011;40050;47.324;18.792;2022-10-19T05:59:15;26.50;;;16.23;;
54143;SDS011;40050;47.324;18.792;2022-10-19T06:01:12;23.59;;;15.74;;
54143;SDS011;40050;47.324;18.792;2022-10-19T06:03:13;25.15;;;15.94;;
54143;SDS011;40050;47.324;18.792;2022-10-19T06:05:14;25.11;;;16.03;;
54143;SDS011;40050;47.324;18.792;2022-10-19T06:07:15;25.80;;;16.22;;
54143;SDS011;40050;47.324;18.792;2022-10-19T06:09:16;24.94;;;16.01;;
54143;SDS011;40050;47.324;18.792;2022-10-19T06:11:19;23.65;;;15.71;;
54143;SDS011;40050;47.324;18.792;2022-10-19T06:13:19;24.79;;;16.87;;
54143;SDS011;40050;47.324;18.792;2022-10-19T06:15:21;24.12;;;16.38;;
54143;SDS011;40050;47.324;18.792;2022-10-19T06:17:21;24.16;;;16.29;;
54143;SDS011;40050;47.324;18.792;2022-10-19T06:19:23;24.39;;;16.77;;
54143;SDS011;40050;47.324;18.792;2022-10-19T06:21:27;25.75;;;16.57;;
54143;SDS011;40050;47.324;18.792;2022-10-19T06:23:25;26.47;;;16.48;;
54143;SDS011;40050;47.324;18.792;2022-10-19T06:25:26;26.08;;;16.57;;
54143;SDS011;40050;47.324;18.792;2022-10-19T06:27:27;23.39;;;15.50;;
54143;SDS011;40050;47.324;18.792;2022-10-19T06:29:28;24.93;;;16.18;;
54143;SDS011;40050;47.324;18.792;2022-10-19T06:31:30;23.77;;;16.18;;
54143;SDS011;40050;47.324;18.792;2022-10-19T06:33:30;25.27;;;15.69;;
54143;SDS011;40050;47.324;18.792;2022-10-19T06:35:31;25.09;;;16.28;;
54143;SDS011;40050;47.324;18.792;2022-10-19T06:37:32;25.66;;;16.18;;
54143;SDS011;40050;47.324;18.792;2022-10-19T06:39:33;23.77;;;16.48;;
54143;SDS011;40050;47.324;18.792;2022-10-19T06:41:34;24.86;;;16.29;;
54143;SDS011;40050;47.324;18.792;2022-10-19T06:43:35;23.12;;;15.89;;
54143;SDS011;40050;47.324;18.792;2022-10-19T06:45:39;23.40;;;15.89;;
54143;SDS011;40050;47.324;18.792;2022-10-19T06:47:41;23.42;;;15.80;;
54143;SDS011;40050;47.324;18.792;2022-10-19T06:49:42;24.71;;;15.41;;
54143;SDS011;40050;47.324;18.792;2022-10-19T06:51:43;30.02;;;15.90;;
54143;SDS011;40050;47.324;18.792;2022-10-19T06:53:44;24.89;;;16.20;;
54143;SDS011;40050;47.324;18.792;2022-10-19T06:55:45;23.35;;;15.70;;
54143;SDS011;40050;47.324;18.792;2022-10-19T06:57:46;23.55;;;15.81;;
54143;SDS011;40050;47.324;18.792;2022-10-19T06:59:47;20.29;;;14.05;;
54143;SDS011;40050;47.324;18.792;2022-10-19T07:01:48;20.85;;;13.76;;
54143;SDS011;40050;47.324;18.792;2022-10-19T07:03:50;20.44;;;14.16;;
54143;SDS011;40050;47.324;18.792;2022-10-19T07:05:53;22.48;;;14.27;;
54143;SDS011;40050;47.324;18.792;2022-10-19T07:07:51;20.16;;;13.69;;
54143;SDS011;40050;47.324;18.792;2022-10-19T07:09:52;18.40;;;13.32;;
54143;SDS011;40050;47.324;18.792;2022-10-19T07:11:53;19.40;;;13.80;;
54143;SDS011;40050;47.324;18.792;2022-10-19T07:13:54;17.88;;;12.64;;
54143;SDS011;40050;47.324;18.792;2022-10-19T07:15:57;17.07;;;12.15;;
54143;SDS011;40050;47.324;18.792;2022-10-19T07:17:56;18.98;;;11.97;;
54143;SDS011;40050;47.324;18.792;2022-10-19T07:19:57;18.67;;;11.69;;
54143;SDS011;40050;47.324;18.792;2022-10-19T07:21:58;17.77;;;10.81;;
54143;SDS011;40050;47.324;18.792;2022-10-19T07:24:00;15.86;;;9.83;;
54143;SDS011;40050;47.324;18.792;2022-10-19T07:26:07;12.19;;;8.66;;
54143;SDS011;40050;47.324;18.792;2022-10-19T07:28:02;12.53;;;8.87;;
54143;SDS011;40050;47.324;18.792;2022-10-19T07:30:03;15.21;;;8.88;;
54143;SDS011;40050;47.324;18.792;2022-10-19T07:32:04;14.11;;;8.69;;
54143;SDS011;40050;47.324;18.792;2022-10-19T07:34:04;11.98;;;8.20;;
54143;SDS011;40050;47.324;18.792;2022-10-19T07:36:07;11.91;;;8.30;;
54143;SDS011;40050;47.324;18.792;2022-10-19T07:38:06;11.23;;;8.00;;
54143;SDS011;40050;47.324;18.792;2022-10-19T07:40:07;10.03;;;7.81;;
54143;SDS011;40050;47.324;18.792;2022-10-19T07:42:08;10.36;;;7.32;;
54143;SDS011;40050;47.324;18.792;2022-10-19T07:44:10;12.09;;;6.93;;
54143;SDS011;40050;47.324;18.792;2022-10-19T07:46:21;9.66;;;6.93;;
54143;SDS011;40050;47.324;18.792;2022-10-19T07:48:12;10.05;;;6.74;;
54143;SDS011;40050;47.324;18.792;2022-10-19T07:50:13;9.04;;;6.55;;
54143;SDS011;40050;47.324;18.792;2022-10-19T07:52:13;8.96;;;6.45;;
54143;SDS011;40050;47.324;18.792;2022-10-19T07:54:14;8.41;;;6.35;;
54143;SDS011;40050;47.324;18.792;2022-10-19T07:56:19;9.10;;;6.06;;
54143;SDS011;40050;47.324;18.792;2022-10-19T07:58:17;8.53;;;5.86;;
54143;SDS011;40050;47.324;18.792;2022-10-19T08:00:18;8.74;;;6.16;;
54143;SDS011;40050;47.324;18.792;2022-10-19T08:02:19;8.06;;;6.26;;
54143;SDS011;40050;47.324;18.792;2022-10-19T08:04:22;8.27;;;6.07;;
54143;SDS011;40050;47.324;18.792;2022-10-19T08:06:23;9.45;;;6.67;;
54143;SDS011;40050;47.324;18.792;2022-10-19T08:08:24;8.58;;;6.07;;
54143;SDS011;40050;47.324;18.792;2022-10-19T08:10:25;8.61;;;5.97;;
54143;SDS011;40050;47.324;18.792;2022-10-19T08:12:27;8.52;;;5.68;;
54143;SDS011;40050;47.324;18.792;2022-10-19T08:14:28;9.30;;;5.88;;
54143;SDS011;40050;47.324;18.792;2022-10-19T08:16:36;7.87;;;5.48;;
54143;SDS011;40050;47.324;18.792;2022-10-19T08:18:30;7.59;;;5.28;;
54143;SDS011;40050;47.324;18.792;2022-10-19T08:20:31;7.50;;;5.38;;
54143;SDS011;40050;47.324;18.792;2022-10-19T08:22:32;8.58;;;5.28;;
54143;SDS011;40050;47.324;18.792;2022-10-19T08:24:33;8.88;;;5.78;;
54143;SDS011;40050;47.324;18.792;2022-10-19T08:26:34;6.74;;;4.99;;
54143;SDS011;40050;47.324;18.792;2022-10-19T08:28:34;6.56;;;4.79;;
54143;SDS011;40050;47.324;18.792;2022-10-19T08:30:36;7.34;;;4.99;;
54143;SDS011;40050;47.324;18.792;2022-10-19T08:32:36;5.49;;;4.49;;
54143;SDS011;40050;47.324;18.792;2022-10-19T08:34:37;7.06;;;4.39;;
54143;SDS011;40050;47.324;18.792;2022-10-19T08:36:39;7.36;;;4.39;;
54143;SDS011;40050;47.324;18.792;2022-10-19T08:38:40;6.49;;;4.09;;
54143;SDS011;40050;47.324;18.792;2022-10-19T08:40:55;6.20;;;3.99;;
54143;SDS011;40050;47.324;18.792;2022-10-19T08:43:12;5.80;;;3.59;;
54143;SDS011;40050;47.324;18.792;2022-10-19T08:47:52;5.81;;;3.89;;
54143;SDS011;40050;47.324;18.792;2022-10-19T08:49:48;6.02;;;3.30;;
54143;SDS011;40050;47.324;18.792;2022-10-19T08:51:51;4.44;;;3.40;;
54143;SDS011;40050;47.324;18.792;2022-10-19T08:54:15;5.53;;;3.40;;
54143;SDS011;40050;47.324;18.792;2022-10-19T08:56:32;4.64;;;3.50;;
54143;SDS011;40050;47.324;18.792;2022-10-19T09:01:12;3.86;;;2.90;;
54143;SDS011;40050;47.324;18.792;2022-10-19T09:03:44;6.04;;;2.90;;
54143;SDS011;40050;47.324;18.792;2022-10-19T09:05:50;8.72;;;3.00;;
54143;SDS011;40050;47.324;18.792;2022-10-19T09:07:39;4.36;;;3.00;;
54143;SDS011;40050;47.324;18.792;2022-10-19T09:09:48;4.06;;;2.80;;
54143;SDS011;40050;47.324;18.792;2022-10-19T09:11:47;5.25;;;2.50;;
54143;SDS011;40050;47.324;18.792;2022-10-19T09:14:04;3.37;;;2.80;;
54143;SDS011;40050;47.324;18.792;2022-10-19T09:16:12;3.47;;;2.40;;
54143;SDS011;40050;47.324;18.792;2022-10-19T09:18:20;3.97;;;2.50;;
54143;SDS011;40050;47.324;18.792;2022-10-19T09:20:14;3.37;;;2.30;;
54143;SDS011;40050;47.324;18.792;2022-10-19T09:22:19;3.38;;;2.40;;
54143;SDS011;40050;47.324;18.792;2022-10-19T09:24:41;4.47;;;2.30;;
54143;SDS011;40050;47.324;18.792;2022-10-19T09:26:52;3.58;;;2.20;;
54143;SDS011;40050;47.324;18.792;2022-10-19T09:31:19;3.08;;;2.30;;
54143;SDS011;40050;47.324;18.792;2022-10-19T09:33:15;2.19;;;1.80;;
54143;SDS011;40050;47.324;18.792;2022-10-19T09:37:17;2.19;;;1.80;;
54143;SDS011;40050;47.324;18.792;2022-10-19T09:39:18;2.09;;;1.70;;
54143;SDS011;40050;47.324;18.792;2022-10-19T09:41:19;3.18;;;2.10;;
54143;SDS011;40050;47.324;18.792;2022-10-19T09:43:20;1.99;;;1.70;;
54143;SDS011;40050;47.324;18.792;2022-10-19T09:45:32;2.19;;;1.50;;
54143;SDS011;40050;47.324;18.792;2022-10-19T09:47:38;1.89;;;1.70;;
54143;SDS011;40050;47.324;18.792;2022-10-19T09:49:45;2.99;;;1.50;;
54143;SDS011;40050;47.324;18.792;2022-10-19T09:51:46;2.59;;;1.70;;
54143;SDS011;40050;47.324;18.792;2022-10-19T09:53:52;2.39;;;1.80;;
54143;SDS011;40050;47.324;18.792;2022-10-19T09:55:58;1.79;;;1.60;;
54143;SDS011;40050;47.324;18.792;2022-10-19T09:58:14;2.59;;;1.70;;
54143;SDS011;40050;47.324;18.792;2022-10-19T09:59:59;3.49;;;1.90;;
54143;SDS011;40050;47.324;18.792;2022-10-19T10:02:08;4.58;;;2.10;;
54143;SDS011;40050;47.324;18.792;2022-10-19T10:04:15;1.59;;;1.30;;
54143;SDS011;40050;47.324;18.792;2022-10-19T10:06:17;2.59;;;1.70;;
54143;SDS011;40050;47.324;18.792;2022-10-19T10:08:28;2.39;;;2.00;;
54143;SDS011;40050;47.324;18.792;2022-10-19T10:10:29;4.09;;;2.10;;
54143;SDS011;40050;47.324;18.792;2022-10-19T10:12:29;4.18;;;2.40;;
54143;SDS011;40050;47.324;18.792;2022-10-19T10:14:34;3.39;;;2.00;;
54143;SDS011;40050;47.324;18.792;2022-10-19T10:16:37;3.19;;;2.10;;
54143;SDS011;40050;47.324;18.792;2022-10-19T10:18:55;3.39;;;2.10;;
54143;SDS011;40050;47.324;18.792;2022-10-19T10:21:03;3.09;;;2.40;;
54143;SDS011;40050;47.324;18.792;2022-10-19T10:23:02;3.09;;;2.00;;
54143;SDS011;40050;47.324;18.792;2022-10-19T10:25:11;2.69;;;2.20;;
54143;SDS011;40050;47.324;18.792;2022-10-19T10:27:18;4.08;;;2.00;;
54143;SDS011;40050;47.324;18.792;2022-10-19T10:29:30;2.79;;;1.80;;
54143;SDS011;40050;47.324;18.792;2022-10-19T10:31:26;2.59;;;1.80;;
54143;SDS011;40050;47.324;18.792;2022-10-19T10:33:27;3.39;;;2.30;;
54143;SDS011;40050;47.324;18.792;2022-10-19T10:35:38;2.39;;;1.90;;
54143;SDS011;40050;47.324;18.792;2022-10-19T10:37:48;3.49;;;1.80;;
54143;SDS011;40050;47.324;18.792;2022-10-19T10:39:52;2.19;;;1.50;;
54143;SDS011;40050;47.324;18.792;2022-10-19T10:41:52;2.89;;;1.70;;
54143;SDS011;40050;47.324;18.792;2022-10-19T10:43:59;1.49;;;1.20;;
54143;SDS011;40050;47.324;18.792;2022-10-19T10:46:07;1.20;;;1.10;;
54143;SDS011;40050;47.324;18.792;2022-10-19T10:48:26;1.30;;;1.20;;
54143;SDS011;40050;47.324;18.792;2022-10-19T10:50:14;2.99;;;1.30;;
54143;SDS011;40050;47.324;18.792;2022-10-19T10:52:17;1.59;;;1.10;;
54143;SDS011;40050;47.324;18.792;2022-10-19T10:54:25;1.20;;;0.90;;
54143;SDS011;40050;47.324;18.792;2022-10-19T10:56:28;1.30;;;0.90;;
54143;SDS011;40050;47.324;18.792;2022-10-19T10:58:40;1.00;;;0.80;;
54143;SDS011;40050;47.324;18.792;2022-10-19T11:00:43;2.49;;;1.10;;
54143;SDS011;40050;47.324;18.792;2022-10-19T11:02:59;3.39;;;1.20;;
54143;SDS011;40050;47.324;18.792;2022-10-19T11:04:56;1.20;;;1.10;;
54143;SDS011;40050;47.324;18.792;2022-10-19T11:06:55;5.09;;;1.10;;
54143;SDS011;40050;47.324;18.792;2022-10-19T11:09:02;1.50;;;1.10;;
54143;SDS011;40050;47.324;18.792;2022-10-19T11:11:12;1.20;;;1.00;;
54143;SDS011;40050;47.324;18.792;2022-10-19T11:13:17;1.80;;;1.30;;
54143;SDS011;40050;47.324;18.792;2022-10-19T11:15:18;2.19;;;1.00;;
54143;SDS011;40050;47.324;18.792;2022-10-19T11:17:27;1.50;;;1.10;;
54143;SDS011;40050;47.324;18.792;2022-10-19T11:19:36;1.70;;;1.30;;
54143;SDS011;40050;47.324;18.792;2022-10-19T11:21:56;2.79;;;1.30;;
54143;SDS011;40050;47.324;18.792;2022-10-19T11:26:50;5.38;;;1.90;;
54143;SDS011;40050;47.324;18.792;2022-10-19T11:28:34;1.99;;;1.40;;
54143;SDS011;40050;47.324;18.792;2022-10-19T11:30:33;4.29;;;1.30;;
54143;SDS011;40050;47.324;18.792;2022-10-19T11:32:39;2.79;;;1.40;;
54143;SDS011;40050;47.324;18.792;2022-10-19T11:35:10;2.79;;;1.40;;
54143;SDS011;40050;47.324;18.792;2022-10-19T11:41:40;1.49;;;1.40;;
54143;SDS011;40050;47.324;18.792;2022-10-19T11:46:18;3.49;;;1.50;;
54143;SDS011;40050;47.324;18.792;2022-10-19T11:53:19;2.99;;;1.50;;
54143;SDS011;40050;47.324;18.792;2022-10-19T11:55:41;3.09;;;1.30;;
54143;SDS011;40050;47.324;18.792;2022-10-19T11:57:42;1.20;;;1.10;;
54143;SDS011;40050;47.324;18.792;2022-10-19T12:00:03;1.49;;;1.10;;
54143;SDS011;40050;47.324;18.792;2022-10-19T12:06:38;1.79;;;1.00;;
54143;SDS011;40050;47.324;18.792;2022-10-19T12:08:54;1.79;;;1.20;;
54143;SDS011;40050;47.324;18.792;2022-10-19T12:13:02;2.99;;;1.20;;
54143;SDS011;40050;47.324;18.792;2022-10-19T12:17:17;3.29;;;1.20;;
54143;SDS011;40050;47.324;18.792;2022-10-19T12:19:28;2.09;;;1.00;;
54143;SDS011;40050;47.324;18.792;2022-10-19T12:21:28;1.39;;;1.00;;
54143;SDS011;40050;47.324;18.792;2022-10-19T12:23:31;2.09;;;1.10;;
54143;SDS011;40050;47.324;18.792;2022-10-19T12:25:31;5.78;;;1.40;;
54143;SDS011;40050;47.324;18.792;2022-10-19T12:27:34;2.79;;;1.30;;
54143;SDS011;40050;47.324;18.792;2022-10-19T12:29:37;2.09;;;1.30;;
54143;SDS011;40050;47.324;18.792;2022-10-19T12:31:38;2.39;;;1.30;;
54143;SDS011;40050;47.324;18.792;2022-10-19T12:36:24;1.40;;;1.00;;
54143;SDS011;40050;47.324;18.792;2022-10-19T12:38:16;1.40;;;1.20;;
54143;SDS011;40050;47.324;18.792;2022-10-19T12:40:36;1.69;;;1.20;;
54143;SDS011;40050;47.324;18.792;2022-10-19T12:45:05;1.40;;;1.10;;
54143;SDS011;40050;47.324;18.792;2022-10-19T12:47:18;1.79;;;1.20;;
54143;SDS011;40050;47.324;18.792;2022-10-19T12:51:33;1.69;;;1.40;;